createdAt,value
2023-02-01T00:00:10.628Z,98914.35
2023-02-01T00:02:51.137Z,98915.33
2023-02-01T00:05:51.174Z,98909.95
2023-02-01T00:08:23.031Z,98906.25
2023-02-01T00:11:03.003Z,98905.30
2023-02-01T00:13:34.686Z,98905.29
2023-02-01T00:16:22.129Z,98902.36
2023-02-01T00:18:51.613Z,98901.58
2023-02-01T00:24:17.260Z,98897.86
2023-02-01T00:26:46.774Z,98898.73
2023-02-01T00:29:23.535Z,98899.39
2023-02-01T00:31:53.460Z,98896.44
2023-02-01T00:37:33.547Z,98895.67
2023-02-01T00:40:01.982Z,98894.00
2023-02-01T00:42:32.950Z,98894.26
2023-02-01T00:45:04.884Z,98892.33
2023-02-01T00:47:36.257Z,98891.40
2023-02-01T00:50:07.491Z,98892.77
2023-02-01T00:52:38.552Z,98897.23
2023-02-01T00:55:08.066Z,98898.87
2023-02-01T00:57:37.192Z,98900.40
2023-02-01T01:00:07.208Z,98901.14
2023-02-01T01:02:36.538Z,98902.52
2023-02-01T01:05:09.020Z,98900.09
2023-02-01T01:07:38.727Z,98902.96
2023-02-01T01:10:10.671Z,98904.52
2023-02-01T01:12:42.435Z,98908.70
2023-02-01T01:15:13.496Z,98908.94
2023-02-01T01:17:44.146Z,98906.02
2023-02-01T01:20:16.042Z,98908.05
2023-02-01T01:22:45.148Z,98910.88
2023-02-01T01:25:15.360Z,98910.40
2023-02-01T01:27:45.496Z,98911.97
2023-02-01T01:30:14.471Z,98909.60
2023-02-01T01:32:44.622Z,98909.39
2023-02-01T01:35:13.887Z,98909.44
2023-02-01T01:37:42.396Z,98903.80
2023-02-01T01:40:13.299Z,98907.40
2023-02-01T01:42:46.241Z,98908.64
2023-02-01T01:45:30.531Z,98907.71
2023-02-01T01:48:27.752Z,98909.73
2023-02-01T01:51:00.101Z,98904.67
2023-02-01T01:53:32.959Z,98902.21
2023-02-01T01:56:01.984Z,98901.67
2023-02-01T01:58:35.374Z,98898.96
2023-02-01T02:01:07.485Z,98896.65
2023-02-01T02:03:47.305Z,98892.66
2023-02-01T02:06:33.834Z,98891.48
2023-02-01T02:09:05.964Z,98888.90
2023-02-01T02:11:35.633Z,98889.08
2023-02-01T02:14:07.616Z,98888.48
2023-02-01T02:17:12.770Z,98889.04
2023-02-01T02:19:50.360Z,98889.16
2023-02-01T02:22:55.406Z,98885.35
2023-02-01T02:25:46.780Z,98880.70
2023-02-01T02:28:31.497Z,98877.98
2023-02-01T02:31:03.331Z,98876.54
2023-02-01T02:33:37.203Z,98874.33
2023-02-01T02:37:00.686Z,98873.83
2023-02-01T02:39:29.340Z,98870.14
2023-02-01T02:42:37.773Z,98875.70
2023-02-01T02:45:32.966Z,98874.36
2023-02-01T02:48:11.841Z,98876.14
2023-02-01T02:51:07.011Z,98872.68
2023-02-01T02:54:07.076Z,98873.95
2023-02-01T02:56:53.983Z,98874.02
2023-02-01T02:59:42.080Z,98876.59
2023-02-01T03:02:29.680Z,98873.11
2023-02-01T03:04:58.442Z,98878.15
2023-02-01T03:07:56.427Z,98876.59
2023-02-01T03:10:55.933Z,98875.05
2023-02-01T03:13:40.233Z,98878.55
2023-02-01T03:16:22.500Z,98887.77
2023-02-01T03:19:02.022Z,98885.70
2023-02-01T03:21:41.631Z,98882.41
2023-02-01T03:24:14.308Z,98877.55
2023-02-01T03:26:55.882Z,98871.95
2023-02-01T03:29:28.537Z,98869.67
2023-02-01T03:31:57.796Z,98873.46
2023-02-01T03:34:26.648Z,98874.26
2023-02-01T03:37:01.125Z,98871.46
2023-02-01T03:40:01.092Z,98871.16
2023-02-01T03:42:42.215Z,98870.73
2023-02-01T03:45:17.952Z,98865.73
2023-02-01T03:47:49.656Z,98863.86
2023-02-01T03:50:21.336Z,98863.77
2023-02-01T03:53:28.096Z,98860.94
2023-02-01T03:56:00.979Z,98866.14
2023-02-01T03:58:32.989Z,98861.83
2023-02-01T04:01:02.164Z,98862.13
2023-02-01T04:03:35.780Z,98865.59
2023-02-01T04:06:04.380Z,98866.36
2023-02-01T04:08:36.828Z,98868.52
2023-02-01T04:11:05.437Z,98869.05
2023-02-01T04:13:35.069Z,98870.52
2023-02-01T04:16:03.756Z,98870.20
2023-02-01T04:18:37.147Z,98869.72
2023-02-01T04:21:05.586Z,98868.61
2023-02-01T04:23:36.350Z,98869.23
2023-02-01T04:26:05.589Z,98869.80
2023-02-01T04:28:37.175Z,98877.08
2023-02-01T04:31:08.286Z,98877.29
2023-02-01T04:33:38.947Z,98876.03
2023-02-01T04:36:07.529Z,98872.27
2023-02-01T04:38:36.420Z,98876.71
2023-02-01T04:41:05.627Z,98876.80
2023-02-01T04:43:35.370Z,98875.05
2023-02-01T04:46:03.828Z,98872.38
2023-02-01T04:48:32.386Z,98875.30
2023-02-01T04:51:01.189Z,98874.52
2023-02-01T04:53:31.063Z,98874.45
2023-02-01T04:56:03.504Z,98875.84
2023-02-01T04:58:32.684Z,98870.52
2023-02-01T05:01:05.963Z,98872.45
2023-02-01T05:03:37.647Z,98875.46
2023-02-01T05:06:07.029Z,98875.29
2023-02-01T05:08:37.784Z,98874.41
2023-02-01T05:11:07.402Z,98876.04
2023-02-01T05:13:51.307Z,98872.84
2023-02-01T05:16:20.217Z,98874.77
2023-02-01T05:18:51.238Z,98872.19
2023-02-01T05:21:21.421Z,98872.04
2023-02-01T05:24:09.885Z,98876.45
2023-02-01T05:26:41.999Z,98876.46
2023-02-01T05:29:11.077Z,98874.68
2023-02-01T05:31:39.715Z,98868.77
2023-02-01T05:34:09.484Z,98869.85
2023-02-01T05:36:40.455Z,98867.97
2023-02-01T05:39:13.363Z,98867.77
2023-02-01T05:41:42.494Z,98868.29
2023-02-01T05:44:14.139Z,98865.80
2023-02-01T05:46:45.505Z,98866.58
2023-02-01T08:55:24.873Z,98769.41
2023-02-01T08:57:53.749Z,98766.16
2023-02-01T09:00:21.521Z,98756.38
2023-02-01T09:02:48.970Z,98758.35
2023-02-01T09:05:18.799Z,98762.09
2023-02-01T09:07:47.496Z,98758.09
2023-02-01T09:10:33.523Z,98759.09
2023-02-01T09:13:03.648Z,98755.88
2023-02-01T09:15:36.790Z,98751.61
2023-02-01T09:18:04.949Z,98751.27
2023-02-01T09:20:33.716Z,98746.23
2023-02-01T09:23:02.702Z,98737.81
2023-02-01T09:25:37.993Z,98736.05
2023-02-01T09:28:07.268Z,98721.95
2023-02-01T09:30:37.276Z,98719.57
2023-02-01T09:33:05.176Z,98713.82
2023-02-01T09:35:32.999Z,98709.59
2023-02-01T09:38:00.515Z,98703.64
2023-02-01T09:40:29.856Z,98701.03
2023-02-01T09:43:20.596Z,98693.66
2023-02-01T09:46:03.090Z,98689.69
2023-02-01T09:48:37.607Z,98681.42
2023-02-01T09:51:13.571Z,98683.05
2023-02-01T09:53:45.389Z,98676.23
2023-02-01T09:56:15.958Z,98672.70
2023-02-01T09:58:46.165Z,98663.77
2023-02-01T10:01:32.930Z,98666.36
2023-02-01T10:04:08.327Z,98658.76
2023-02-01T10:06:48.987Z,98659.74
2023-02-01T10:09:34.569Z,98659.99
2023-02-01T10:12:21.403Z,98669.96
2023-02-01T10:15:22.872Z,98669.08
2023-02-01T10:18:12.869Z,98667.00
2023-02-01T10:20:56.220Z,98665.41
2023-02-01T10:24:03.546Z,98672.77
2023-02-01T10:26:43.547Z,98668.31
2023-02-01T10:29:23.204Z,98666.64
2023-02-01T10:31:53.267Z,98664.27
2023-02-01T10:34:29.645Z,98667.36
2023-02-01T10:37:13.431Z,98668.27
2023-02-01T10:39:41.438Z,98665.56
2023-02-01T10:42:12.515Z,98663.80
2023-02-01T10:44:45.887Z,98659.40
2023-02-01T10:47:19.992Z,98658.34
2023-02-01T10:50:01.533Z,98652.86
2023-02-01T10:52:34.731Z,98655.38
2023-02-01T10:55:31.388Z,98653.66
2023-02-01T10:58:01.949Z,98650.53
2023-02-01T11:00:44.345Z,98648.94
2023-02-01T11:03:33.695Z,98653.30
2023-02-01T11:06:10.974Z,98654.13
2023-02-01T11:09:02.550Z,98652.41
2023-02-01T11:11:34.413Z,98654.30
2023-02-01T11:14:20.895Z,98661.18
2023-02-01T11:16:54.734Z,98653.02
2023-02-01T11:19:24.233Z,98657.82
2023-02-01T11:21:54.323Z,98653.40
2023-02-01T11:24:35.379Z,98653.92
2023-02-01T11:27:07.144Z,98653.63
2023-02-01T11:29:43.194Z,98656.16
2023-02-01T11:32:10.933Z,98654.35
2023-02-01T11:34:53.549Z,98653.11
2023-02-01T11:37:35.093Z,98649.30
2023-02-01T11:40:20.720Z,98645.58
2023-02-01T11:43:00.196Z,98634.25
2023-02-01T11:45:29.880Z,98639.73
2023-02-01T11:47:58.836Z,98643.30
2023-02-01T11:50:36.519Z,98637.69
2023-02-01T11:53:39.127Z,98639.84
2023-02-01T11:56:09.770Z,98638.43
2023-02-01T11:59:18.870Z,98632.69
2023-02-01T12:02:11.268Z,98637.66
2023-02-01T12:04:52.260Z,98634.62
2023-02-01T12:07:57.408Z,98628.60
2023-02-01T12:10:51.988Z,98625.30
2023-02-01T12:13:32.729Z,98625.45
2023-02-01T12:16:24.097Z,98626.19
2023-02-01T12:22:27.748Z,98622.98
2023-02-01T12:25:24.508Z,98627.26
2023-02-01T12:28:14.073Z,98616.85
2023-02-01T12:31:08.353Z,98615.19
2023-02-01T12:33:48.899Z,98615.23
2023-02-01T12:37:08.789Z,98619.45
2023-02-01T12:39:42.850Z,98618.36
2023-02-01T12:42:32.823Z,98618.59
2023-02-01T12:45:12.154Z,98614.70
2023-02-01T12:47:47.824Z,98614.81
2023-02-01T12:50:38.773Z,98616.33
2023-02-01T12:53:21.134Z,98614.49
2023-02-01T12:55:56.569Z,98615.25
2023-02-01T12:58:49.367Z,98612.93
2023-02-01T13:01:23.130Z,98606.70
2023-02-01T13:04:12.029Z,98611.09
2023-02-01T13:07:08.926Z,98607.71
2023-02-01T13:09:47.636Z,98609.48
2023-02-01T13:12:30.608Z,98610.66
2023-02-01T13:15:11.870Z,98606.34
2023-02-01T13:17:40.991Z,98608.93
2023-02-01T13:20:26.377Z,98603.40
2023-02-01T13:22:58.415Z,98606.67
2023-02-01T13:26:00.544Z,98606.23
2023-02-01T13:28:41.198Z,98601.13
2023-02-01T13:31:20.768Z,98599.74
2023-02-01T13:34:26.606Z,98600.72
2023-02-01T13:37:30.121Z,98593.63
2023-02-01T13:40:08.971Z,98598.16
2023-02-01T17:59:19.739Z,98677.20
2023-02-01T18:01:49.766Z,98674.75
2023-02-01T18:04:16.956Z,98674.45
2023-02-01T18:06:44.772Z,98671.33
2023-02-01T18:09:15.416Z,98673.90
2023-02-01T18:11:42.385Z,98679.13
2023-02-01T18:14:15.435Z,98673.16
2023-02-01T18:16:42.818Z,98676.29
2023-02-01T18:19:10.212Z,98677.54
2023-02-01T18:21:40.707Z,98676.50
2023-02-01T18:24:14.768Z,98679.30
2023-02-01T18:26:45.469Z,98681.30
2023-02-01T18:29:12.521Z,98681.96
2023-02-01T18:31:51.514Z,98683.50
2023-02-01T18:34:23.382Z,98683.97
2023-02-01T18:36:51.816Z,98687.11
2023-02-01T18:39:22.372Z,98684.77
2023-02-01T18:41:51.281Z,98685.70
2023-02-01T18:44:26.128Z,98684.61
2023-02-01T18:46:56.452Z,98685.58
2023-02-01T18:49:23.634Z,98685.61
2023-02-01T18:51:52.662Z,98683.20
2023-02-01T18:54:24.430Z,98683.21
2023-02-01T18:56:54.600Z,98682.62
2023-02-01T18:59:21.860Z,98681.59
2023-02-01T19:01:49.843Z,98678.30
2023-02-01T19:04:24.416Z,98678.48
2023-02-01T19:06:53.507Z,98678.89
2023-02-01T19:09:23.267Z,98680.48
2023-02-01T19:11:51.117Z,98678.98
2023-02-01T19:14:18.225Z,98679.88
2023-02-01T19:16:48.509Z,98679.23
2023-02-01T19:19:18.763Z,98673.45
2023-02-01T19:21:47.143Z,98672.02
2023-02-01T19:24:15.235Z,98669.71
2023-02-01T19:26:47.828Z,98671.71
2023-02-01T19:29:16.528Z,98672.24
2023-02-01T19:31:47.499Z,98673.10
2023-02-01T19:34:21.353Z,98673.71
2023-02-01T19:36:58.616Z,98674.23
2023-02-01T19:39:26.127Z,98674.20
2023-02-01T19:41:53.797Z,98672.92
2023-02-01T19:44:22.205Z,98670.69
2023-02-01T19:46:51.422Z,98671.38
2023-02-01T19:49:19.902Z,98668.36
2023-02-01T19:51:49.593Z,98669.00
2023-02-01T19:54:18.970Z,98672.61
2023-02-01T19:56:50.934Z,98673.29
2023-02-01T19:59:19.029Z,98671.04
2023-02-01T20:01:54.252Z,98668.35
2023-02-01T20:04:25.933Z,98672.20
2023-02-01T20:06:55.604Z,98672.06
2023-02-01T20:09:24.472Z,98667.46
2023-02-01T20:11:54.615Z,98668.38
2023-02-01T20:14:26.863Z,98669.08
2023-02-01T20:16:54.000Z,98669.55
2023-02-01T20:19:22.809Z,98669.20
2023-02-01T20:21:51.831Z,98669.73
2023-02-01T20:24:24.014Z,98669.75
2023-02-01T20:26:53.741Z,98668.81
2023-02-01T20:29:23.673Z,98669.36
2023-02-01T20:31:51.020Z,98668.03
2023-02-01T20:34:20.679Z,98670.42
2023-02-01T20:36:49.259Z,98668.16
2023-02-01T20:39:17.951Z,98668.95
2023-02-01T20:41:45.398Z,98670.38
2023-02-01T20:44:12.451Z,98668.79
2023-02-01T20:46:41.920Z,98667.48
2023-02-01T20:49:10.194Z,98670.15
2023-02-01T20:51:42.339Z,98665.00
2023-02-01T20:54:18.067Z,98668.25
2023-02-01T20:56:46.536Z,98665.64
2023-02-01T20:59:16.592Z,98672.05
2023-02-01T21:02:06.793Z,98671.16
2023-02-01T21:04:38.101Z,98677.62
2023-02-01T21:07:05.908Z,98676.02
2023-02-01T21:09:33.446Z,98673.17
2023-02-01T21:12:10.062Z,98675.77
2023-02-01T21:14:38.062Z,98677.64
2023-02-01T21:17:06.913Z,98677.19
2023-02-01T21:19:43.099Z,98679.46
2023-02-01T21:22:11.403Z,98677.28
2023-02-01T21:24:41.215Z,98678.56
2023-02-01T21:27:08.947Z,98677.95
2023-02-01T21:29:41.770Z,98683.97
2023-02-01T21:32:09.645Z,98681.77
2023-02-01T21:34:36.787Z,98681.73
2023-02-01T21:37:05.465Z,98686.08
2023-02-01T21:39:32.539Z,98685.70
2023-02-01T21:42:17.728Z,98685.02
2023-02-01T21:44:48.139Z,98684.48
2023-02-01T21:47:18.161Z,98686.36
2023-02-01T21:49:45.901Z,98689.66
2023-02-01T21:52:14.753Z,98683.80
2023-02-01T21:54:43.108Z,98681.62
2023-02-01T21:57:12.219Z,98678.50
2023-02-01T21:59:40.578Z,98679.95
2023-02-01T22:02:14.613Z,98677.91
2023-02-01T22:04:42.642Z,98679.35
2023-02-01T22:07:10.292Z,98679.52
2023-02-01T22:09:37.518Z,98679.08
2023-02-01T22:12:06.876Z,98679.68
2023-02-01T22:14:34.758Z,98680.70
2023-02-01T22:17:02.699Z,98679.46
2023-02-01T22:19:31.753Z,98684.21
2023-02-01T22:21:59.461Z,98681.88
2023-02-01T22:24:26.696Z,98681.38
2023-02-01T22:26:54.868Z,98676.47
2023-02-01T22:29:23.277Z,98678.34
2023-02-01T22:31:52.443Z,98676.05
2023-02-01T22:34:21.735Z,98673.88
2023-02-01T22:36:49.077Z,98675.10
2023-02-01T22:39:17.312Z,98672.98
2023-02-01T22:41:45.128Z,98671.52
2023-02-01T22:44:12.205Z,98671.43
2023-02-01T22:46:40.873Z,98669.42
2023-02-01T22:49:07.804Z,98668.06
2023-02-01T22:51:36.191Z,98675.38
2023-02-01T22:54:05.754Z,98673.77
2023-02-01T22:56:36.352Z,98673.25
2023-02-01T22:59:05.210Z,98674.85
2023-02-01T23:01:33.467Z,98676.77
2023-02-01T23:04:02.862Z,98678.51
2023-02-01T23:06:31.754Z,98676.59
2023-02-01T23:09:05.599Z,98681.35
2023-02-01T23:11:34.140Z,98680.39
2023-02-01T23:14:01.560Z,98682.20
2023-02-01T23:16:28.765Z,98681.23
2023-02-01T23:18:56.290Z,98679.79
2023-02-01T23:21:23.452Z,98675.27
2023-02-01T23:23:58.095Z,98681.10
2023-02-01T23:26:26.740Z,98674.24
2023-02-01T23:28:55.909Z,98675.65
2023-02-01T23:31:24.588Z,98674.73
2023-02-01T23:33:56.121Z,98674.25
2023-02-01T23:36:24.081Z,98678.59
2023-02-01T23:38:51.366Z,98678.34
2023-02-01T23:41:19.297Z,98676.79
2023-02-01T23:43:58.631Z,98676.73
2023-02-01T23:46:35.691Z,98673.04
2023-02-01T23:49:04.398Z,98668.35
2023-02-01T23:51:33.284Z,98671.71
2023-02-01T23:57:37.745Z,98670.79
